Big Bear Station Historical Data
Daily Summary for August 28, 2017 Units:  English    Metric   Both
Next Day »
Daily Weekly Monthly Yearly Custom
  High: Low: Average:
Temperature: 82.0 °F 53.4 °F 66.8 °F
Dew Point: 53.6 °F 42.2 °F 47.7 °F
Humidity: 79% 26% 54%
Wind Speed: 5.3mph 0.0mph 0.8mph
Wind Gust: -999.0mph - -
Wind- - WNW
Pressure: 30.32 in 30.26 in -
Precipitation: 0.00 in    
Historical Graphs
 
 
Tabular Data for August 28, 2017
Time Temperature Dew Point Pressure Wind Wind Speed Wind Gust Humidity Rainfall Rate (Hourly)
00:07 58.6 °F 43.9 °F 30.32 in Calm   -999.0 mph 58% 0 in
00:22 58.5 °F 45.1 °F 30.32 in Calm   -999.0 mph 61% 0 in
00:37 58.1 °F 43.8 °F 30.32 in Calm   -999.0 mph 59% 0 in
00:52 57.9 °F 43.7 °F 30.32 in Calm   -999.0 mph 59% 0 in
01:07 57.9 °F 45.8 °F 30.32 in Calm   -999.0 mph 64% 0 in
01:23 57.4 °F 44.5 °F 30.32 in Calm   -999.0 mph 62% 0 in
01:38 57.0 °F 45.4 °F 30.32 in Calm   -999.0 mph 65% 0 in
01:53 56.7 °F 46.3 °F 30.31 in Calm   -999.0 mph 68% 0 in
02:08 57.0 °F 47.3 °F 30.31 in Calm   -999.0 mph 70% 0 in
02:23 56.7 °F 46.6 °F 30.31 in Calm   -999.0 mph 69% 0 in
02:39 56.5 °F 46.5 °F 30.31 in Calm   -999.0 mph 69% 0 in
02:54 56.1 °F 45.7 °F 30.31 in Calm   -999.0 mph 68% 0 in
03:09 55.9 °F 44.7 °F 30.31 in Calm   -999.0 mph 66% 0 in
03:24 55.6 °F 45.2 °F 30.31 in Calm   -999.0 mph 68% 0 in
03:40 55.4 °F 46.9 °F 30.31 in Calm   -999.0 mph 73% 0 in
03:55 55.2 °F 48.1 °F 30.31 in Calm   -999.0 mph 77% 0 in
04:10 54.9 °F 47.8 °F 30.30 in Calm   -999.0 mph 77% 0 in
04:25 54.7 °F 48.0 °F 30.31 in Calm   -999.0 mph 78% 0 in
04:40 54.9 °F 46.8 °F 30.30 in Calm   -999.0 mph 74% 0 in
04:56 54.3 °F 46.2 °F 30.30 in Calm   -999.0 mph 74% 0 in
05:11 54.3 °F 44.7 °F 30.30 in Calm   -999.0 mph 70% 0 in
05:27 54.1 °F 44.5 °F 30.31 in Calm   -999.0 mph 70% 0 in
05:42 53.8 °F 45.0 °F 30.31 in Calm   -999.0 mph 72% 0 in
05:57 53.8 °F 47.1 °F 30.31 in Calm   -999.0 mph 78% 0 in
06:12 53.6 °F 47.2 °F 30.31 in Calm   -999.0 mph 79% 0 in
06:27 53.4 °F 46.7 °F 30.31 in Calm   -999.0 mph 78% 0 in
06:43 53.4 °F 45.7 °F 30.32 in Calm   -999.0 mph 75% 0 in
06:58 53.6 °F 45.5 °F 30.32 in Calm   -999.0 mph 74% 0 in
07:13 53.6 °F 45.5 °F 30.32 in Calm   -999.0 mph 74% 0 in
07:29 54.1 °F 46.4 °F 30.32 in Calm   -999.0 mph 75% 0 in
07:44 54.9 °F 47.5 °F 30.32 in Calm   -999.0 mph 76% 0 in
07:59 55.8 °F 48.0 °F 30.32 in Calm   -999.0 mph 75% 0 in
08:14 56.5 °F 49.4 °F 30.32 in Calm   -999.0 mph 77% 0 in
08:30 58.6 °F 49.6 °F 30.32 in Calm   -999.0 mph 72% 0 in
08:45 60.8 °F 50.6 °F 30.32 in Calm   -999.0 mph 69% 0 in
09:00 63.1 °F 49.0 °F 30.32 in Calm   -999.0 mph 60% 0 in
09:15 65.1 °F 49.0 °F 30.32 in Calm   -999.0 mph 56% 0 in
09:31 67.6 °F 51.3 °F 30.32 in Calm   -999.0 mph 56% 0 in
09:46 69.6 °F 49.6 °F 30.32 in Calm   -999.0 mph 49% 0 in
10:01 72.1 °F 51.3 °F 30.32 in NW 3.2 mph -999.0 mph 48% 0 in
10:16 74.8 °F 52.0 °F 30.32 in NNW 3.7 mph -999.0 mph 45% 0 in
10:31 77.9 °F 52.3 °F 30.31 in NW 3.7 mph -999.0 mph 41% 0 in
10:47 80.8 °F 48.2 °F 30.31 in NW 3.7 mph -999.0 mph 32% 0 in
11:02 79.0 °F 46.6 °F 30.32 in NNW 2.2 mph -999.0 mph 32% 0 in
11:17 79.7 °F 46.4 °F 30.31 in NNW 3.7 mph -999.0 mph 31% 0 in
11:32 78.4 °F 45.3 °F 30.31 in NNW 3.7 mph -999.0 mph 31% 0 in
11:48 78.1 °F 45.0 °F 30.31 in Calm   -999.0 mph 31% 0 in
12:03 78.4 °F 47.7 °F 30.31 in NNW 1.1 mph -999.0 mph 34% 0 in
12:19 79.7 °F 45.5 °F 30.31 in Calm   -999.0 mph 30% 0 in
12:34 82.0 °F 47.5 °F 30.31 in NW 5.3 mph -999.0 mph 30% 0 in
12:49 81.0 °F 44.8 °F 30.31 in NNW 3.2 mph -999.0 mph 28% 0 in
13:05 80.2 °F 46.8 °F 30.31 in WNW 3.2 mph -999.0 mph 31% 0 in
13:20 79.5 °F 47.1 °F 30.31 in NW 2.2 mph -999.0 mph 32% 0 in
13:35 80.2 °F 42.2 °F 30.31 in NW 2.7 mph -999.0 mph 26% 0 in
13:50 79.5 °F 47.1 °F 30.30 in NNW 3.7 mph -999.0 mph 32% 0 in
14:05 79.2 °F 47.6 °F 30.30 in North 3.2 mph -999.0 mph 33% 0 in
14:21 80.1 °F 46.7 °F 30.29 in Calm   -999.0 mph 31% 0 in
14:36 81.1 °F 46.7 °F 30.29 in Calm   -999.0 mph 30% 0 in
14:51 81.9 °F 48.3 °F 30.28 in Calm   -999.0 mph 31% 0 in
15:06 81.7 °F 48.1 °F 30.28 in SSE 1.1 mph -999.0 mph 31% 0 in
15:22 79.2 °F 46.8 °F 30.28 in ESE 1.7 mph -999.0 mph 32% 0 in
15:37 80.1 °F 47.6 °F 30.28 in NW 1.7 mph -999.0 mph 32% 0 in
15:52 79.5 °F 47.9 °F 30.27 in SSW 3.2 mph -999.0 mph 33% 0 in
16:07 78.4 °F 46.9 °F 30.27 in South 2.7 mph -999.0 mph 33% 0 in
16:22 79.3 °F 48.5 °F 30.27 in SSW 1.1 mph -999.0 mph 34% 0 in
16:38 79.0 °F 49.0 °F 30.27 in Calm   -999.0 mph 35% 0 in
16:53 79.7 °F 51.1 °F 30.27 in Calm   -999.0 mph 37% 0 in
17:08 80.2 °F 47.7 °F 30.26 in Calm   -999.0 mph 32% 0 in
17:23 80.6 °F 48.0 °F 30.26 in NW 1.7 mph -999.0 mph 32% 0 in
17:38 77.7 °F 50.1 °F 30.26 in WNW 2.2 mph -999.0 mph 38% 0 in
17:54 77.0 °F 50.8 °F 30.26 in NW 2.2 mph -999.0 mph 40% 0 in
18:09 77.0 °F 52.8 °F 30.26 in NW 2.7 mph -999.0 mph 43% 0 in
18:24 76.5 °F 53.6 °F 30.27 in Calm   -999.0 mph 45% 0 in
18:39 75.7 °F 51.0 °F 30.27 in Calm   -999.0 mph 42% 0 in
18:54 74.7 °F 52.0 °F 30.27 in WNW 2.2 mph -999.0 mph 45% 0 in
19:10 73.4 °F 50.8 °F 30.27 in Calm   -999.0 mph 45% 0 in
19:25 71.6 °F 50.3 °F 30.27 in Calm   -999.0 mph 47% 0 in
19:40 70.0 °F 50.0 °F 30.27 in Calm   -999.0 mph 49% 0 in
19:55 68.7 °F 49.8 °F 30.27 in Calm   -999.0 mph 51% 0 in
20:11 67.8 °F 49.0 °F 30.28 in Calm   -999.0 mph 51% 0 in
20:26 66.7 °F 49.0 °F 30.28 in Calm   -999.0 mph 53% 0 in
20:41 65.8 °F 48.7 °F 30.29 in Calm   -999.0 mph 54% 0 in
20:56 64.9 °F 48.8 °F 30.29 in Calm   -999.0 mph 56% 0 in
21:11 63.9 °F 48.4 °F 30.29 in Calm   -999.0 mph 57% 0 in
21:27 63.3 °F 48.3 °F 30.30 in Calm   -999.0 mph 58% 0 in
21:58 62.1 °F 48.5 °F 30.30 in Calm   -999.0 mph 61% 0 in
22:13 61.3 °F 48.2 °F 30.30 in Calm   -999.0 mph 62% 0 in
22:28 60.8 °F 49.8 °F 30.30 in Calm   -999.0 mph 67% 0 in
22:43 60.3 °F 50.1 °F 30.30 in Calm   -999.0 mph 69% 0 in
22:58 59.9 °F 48.9 °F 30.30 in Calm   -999.0 mph 67% 0 in
23:14 59.5 °F 48.1 °F 30.30 in Calm   -999.0 mph 66% 0 in
23:29 59.0 °F 47.7 °F 30.30 in Calm   -999.0 mph 66% 0 in
23:44 58.5 °F 47.6 °F 30.30 in Calm   -999.0 mph 67% 0 in
23:59 58.1 °F 48.0 °F 30.30 in Calm   -999.0 mph 69% 0 in
Big Bear CA Weather